Time;durP1;ratioP1;P1;durP2;ratioP2;P2;SDS_P1;SDS_P2;PMS_P1;PMS_P2;Temp;Humidity;BMP_temperature;BMP_pressure;BME280_temperature;BME280_humidity;BME280_pressure;Samples;Min_cycle;Max_cycle;Signal;HPM_P1;HPM_P2
2022/12/05 00:01:28;;;;;;;40.40;12.40;;;;;;;-0.23;100.00;95141.09;5028816;28;20045;-70
2022/12/05 00:03:56;;;;;;;36.67;11.73;;;;;;;-0.19;100.00;95157.78;5028917;28;20041;-71
2022/12/05 00:06:23;;;;;;;36.35;12.45;;;;;;;-0.25;100.00;95158.59;5019900;28;20522;-70
2022/12/05 00:08:50;;;;;;;36.50;11.23;;;;;;;-0.22;100.00;95158.19;5022447;28;20050;-71
2022/12/05 00:11:21;;;;;;;36.20;10.18;;;;;;;-0.18;100.00;95169.69;5023132;28;20087;-70
2022/12/05 00:13:47;;;;;;;33.78;10.13;;;;;;;-0.14;100.00;95169.28;5017745;28;20038;-70
2022/12/05 00:16:16;;;;;;;35.33;11.30;;;;;;;-0.18;100.00;95167.09;5012495;28;20038;-70
2022/12/05 00:18:42;;;;;;;31.05;11.90;;;;;;;-0.33;100.00;95166.63;5019655;28;20037;-70
2022/12/05 00:21:13;;;;;;;35.25;10.90;;;;;;;-0.30;100.00;95161.03;5028072;28;20049;-70
2022/12/05 00:23:38;;;;;;;37.95;12.20;;;;;;;-0.30;100.00;95186.09;5021452;28;20045;-70
2022/12/05 00:26:05;;;;;;;30.88;10.88;;;;;;;-0.27;100.00;95186.47;5028723;28;20045;-70
2022/12/05 00:28:32;;;;;;;43.63;13.20;;;;;;;-0.36;100.00;95188.53;5026963;28;20466;-70
2022/12/05 00:31:06;;;;;;;33.90;11.90;;;;;;;-0.31;100.00;95185.31;5017611;28;20048;-69
2022/12/05 00:33:32;;;;;;;35.58;12.32;;;;;;;-0.30;100.00;95181.72;5027121;28;20052;-69
2022/12/05 00:36:11;;;;;;;40.53;12.30;;;;;;;-0.27;100.00;95180.53;5023059;28;20407;-69
2022/12/05 00:38:37;;;;;;;39.53;12.45;;;;;;;-0.28;100.00;95187.47;5021890;28;20041;-70
2022/12/05 00:41:04;;;;;;;44.58;13.75;;;;;;;-0.30;100.00;95176.56;5029206;28;20037;-69
2022/12/05 00:43:31;;;;;;;43.47;14.02;;;;;;;-0.35;100.00;95178.97;5025924;28;20045;-70
2022/12/05 00:46:00;;;;;;;33.13;11.30;;;;;;;-0.33;100.00;95181.34;5029766;28;20038;-70
2022/12/05 00:48:26;;;;;;;33.90;11.38;;;;;;;-0.27;100.00;95190.88;5015857;28;20586;-69
2022/12/05 00:51:02;;;;;;;32.78;12.65;;;;;;;-0.31;100.00;95187.88;5028826;28;20096;-69
2022/12/05 00:53:28;;;;;;;31.65;10.65;;;;;;;-0.18;100.00;95185.22;5020309;28;20656;-70
2022/12/05 00:55:54;;;;;;;40.10;13.35;;;;;;;-0.32;100.00;95194.06;5012190;28;20045;-70
2022/12/05 00:58:19;;;;;;;47.97;13.27;;;;;;;-0.29;100.00;95198.03;5011136;28;20050;-70
2022/12/05 01:00:45;;;;;;;36.50;10.57;;;;;;;-0.24;100.00;95191.22;5026920;28;20041;-71
2022/12/05 01:03:10;;;;;;;43.53;12.55;;;;;;;-0.24;100.00;95204.16;5025711;28;20064;-70
2022/12/05 01:05:36;;;;;;;51.75;14.73;;;;;;;-0.29;100.00;95196.22;5020440;28;20045;-71
2022/12/05 01:08:01;;;;;;;39.00;13.55;;;;;;;-0.16;100.00;95197.16;5028655;28;20038;-71
2022/12/05 01:10:27;;;;;;;41.25;12.60;;;;;;;-0.19;100.00;95204.34;5021889;28;20045;-71
2022/12/05 01:12:52;;;;;;;41.47;13.15;;;;;;;-0.11;100.00;95194.75;5019492;28;20377;-70
2022/12/05 01:15:18;;;;;;;33.88;11.75;;;;;;;0.03;100.00;95216.94;5013981;28;20046;-71
2022/12/05 01:17:43;;;;;;;34.78;11.85;;;;;;;-0.09;100.00;95239.28;5014910;28;20046;-71
2022/12/05 01:20:09;;;;;;;41.45;10.93;;;;;;;-0.15;100.00;95234.94;5020305;28;20068;-71
2022/12/05 01:22:35;;;;;;;36.45;12.35;;;;;;;-0.19;100.00;95245.72;5024169;28;20096;-71
2022/12/05 01:25:00;;;;;;;32.83;11.32;;;;;;;-0.16;100.00;95248.88;5026683;28;20049;-70
2022/12/05 01:27:26;;;;;;;38.65;12.23;;;;;;;-0.13;100.00;95253.63;5027502;28;20046;-71
2022/12/05 01:29:51;;;;;;;35.53;12.27;;;;;;;-0.13;100.00;95253.63;5032671;28;20041;-71
2022/12/05 01:32:17;;;;;;;37.40;12.50;;;;;;;-0.12;100.00;95240.50;5026043;28;20049;-70
2022/12/05 01:34:42;;;;;;;32.03;12.57;;;;;;;-0.12;100.00;95235.31;5023213;28;20041;-71
2022/12/05 01:37:08;;;;;;;38.33;12.02;;;;;;;0.08;100.00;95235.19;5026932;28;20049;-71
2022/12/05 01:39:33;;;;;;;38.28;11.50;;;;;;;0.00;100.00;95232.88;5027445;28;20045;-70
2022/12/05 01:41:59;;;;;;;36.15;11.68;;;;;;;0.00;100.00;95232.88;5032413;28;20073;-70
2022/12/05 01:44:24;;;;;;;43.22;14.40;;;;;;;-0.12;100.00;95234.53;5026645;28;20042;-71
2022/12/05 01:46:51;;;;;;;43.42;13.77;;;;;;;-0.11;100.00;95256.81;5022116;28;20114;-71
2022/12/05 01:49:22;;;;;;;45.83;12.77;;;;;;;-0.20;100.00;95259.66;5027943;28;20045;-71
2022/12/05 01:51:54;;;;;;;51.70;13.93;;;;;;;-0.13;100.00;95263.97;5031145;28;20041;-71
2022/12/05 01:54:21;;;;;;;44.65;12.93;;;;;;;-0.14;100.00;95272.72;5030300;28;20152;-70
2022/12/05 01:56:51;;;;;;;38.25;12.90;;;;;;;-0.13;100.00;95279.50;5024148;28;20041;-71
2022/12/05 01:59:19;;;;;;;46.83;12.05;;;;;;;-0.15;100.00;95276.34;5020472;28;20495;-71
2022/12/05 02:01:45;;;;;;;38.15;12.90;;;;;;;-0.22;100.00;95266.81;5032300;28;20044;-71
2022/12/05 02:04:11;;;;;;;44.30;12.45;;;;;;;-0.14;100.00;95267.56;5026605;28;20038;-71
2022/12/05 02:06:36;;;;;;;42.28;12.23;;;;;;;-0.19;100.00;95276.75;5023663;28;20041;-70
2022/12/05 02:09:02;;;;;;;43.58;13.02;;;;;;;-0.12;100.00;95275.91;5025013;28;20048;-71
2022/12/05 02:11:31;;;;;;;45.08;13.38;;;;;;;-0.11;100.00;95293.03;5030090;28;20407;-70
2022/12/05 02:14:09;;;;;;;44.75;12.98;;;;;;;-0.14;100.00;95304.59;5032738;28;20034;-70
2022/12/05 02:16:44;;;;;;;53.10;15.93;;;;;;;-0.13;100.00;95315.72;5027361;28;20040;-70
2022/12/05 02:19:41;;;;;;;45.83;14.35;;;;;;;-0.08;100.00;95321.06;5024896;28;21534;-71
2022/12/05 02:22:27;;;;;;;44.40;13.02;;;;;;;-0.07;100.00;95314.88;5036170;28;20049;-71
2022/12/05 02:24:58;;;;;;;47.55;13.10;;;;;;;-0.09;100.00;95306.53;5026644;28;20084;-71
2022/12/05 02:27:39;;;;;;;53.28;15.32;;;;;;;-0.09;100.00;95302.16;5020912;28;20042;-71
2022/12/05 02:30:09;;;;;;;46.08;14.00;;;;;;;-0.02;100.00;95308.09;5029754;28;20055;-71
2022/12/05 02:33:03;;;;;;;43.40;13.13;;;;;;;0.01;100.00;95306.09;5031387;28;20087;-71
2022/12/05 02:35:52;;;;;;;48.10;14.27;;;;;;;0.00;100.00;95310.50;5028427;28;20072;-71
2022/12/05 02:38:35;;;;;;;45.65;13.85;;;;;;;-0.04;100.00;95325.63;5024780;28;20041;-71
2022/12/05 02:41:11;;;;;;;42.55;14.23;;;;;;;-0.01;100.00;95335.56;5024737;28;20041;-70
2022/12/05 02:43:46;;;;;;;47.22;14.40;;;;;;;0.02;100.00;95324.00;5027060;28;20042;-71
2022/12/05 02:46:18;;;;;;;44.97;14.00;;;;;;;0.00;100.00;95328.59;5025085;28;20080;-71
2022/12/05 02:48:46;;;;;;;54.22;14.75;;;;;;;0.02;100.00;95324.00;5024095;28;20050;-70
2022/12/05 02:51:16;;;;;;;47.10;15.40;;;;;;;0.01;100.00;95331.97;5025483;28;20487;-71
2022/12/05 02:53:44;;;;;;;48.55;14.60;;;;;;;-0.01;100.00;95334.75;5028345;28;20045;-71
2022/12/05 02:56:10;;;;;;;48.15;14.07;;;;;;;-0.07;100.00;95330.41;5016908;28;20515;-71
2022/12/05 02:58:47;;;;;;;52.42;15.40;;;;;;;-0.02;100.00;95330.59;5025106;28;20422;-71
2022/12/05 03:01:13;;;;;;;48.63;13.27;;;;;;;0.02;100.00;95334.34;5032130;28;20840;-71
2022/12/05 03:03:39;;;;;;;36.53;11.98;;;;;;;-0.10;100.00;95336.00;5028070;28;20574;-71
2022/12/05 03:06:04;;;;;;;49.60;16.20;;;;;;;-0.05;100.00;95338.75;5021482;28;20045;-71
2022/12/05 03:08:36;;;;;;;45.65;14.02;;;;;;;-0.05;100.00;95347.31;5027107;28;20417;-70
2022/12/05 03:11:02;;;;;;;44.30;14.25;;;;;;;-0.07;100.00;95351.09;5020000;28;20455;-70
2022/12/05 03:13:37;;;;;;;47.40;15.45;;;;;;;-0.06;100.00;95357.88;5025619;28;20499;-71
2022/12/05 03:16:06;;;;;;;;;;;;;;;-0.05;100.00;95375.75;5024537;28;20045;-71
2022/12/05 03:18:39;;;;;;;43.88;13.18;;;;;;;-0.07;100.00;95367.44;5018964;28;19944;-71
2022/12/05 03:21:16;;;;;;;32.60;11.05;;;;;;;-0.03;100.00;95378.97;5029532;28;20068;-70
2022/12/05 03:23:49;;;;;;;48.20;14.48;;;;;;;-0.11;100.00;95391.34;5030635;28;20491;-71
2022/12/05 03:26:40;;;;;;;43.42;13.10;;;;;;;-0.13;100.00;95382.97;5022344;28;20085;-71
2022/12/05 03:29:09;;;;;;;46.75;14.23;;;;;;;-0.07;100.00;95387.31;5019633;28;20415;-71
2022/12/05 03:32:09;;;;;;;39.17;12.88;;;;;;;-0.12;100.00;95389.72;5028276;28;20033;-70
2022/12/05 03:34:54;;;;;;;46.53;14.45;;;;;;;-0.11;100.00;95399.09;5004391;28;20080;-70
2022/12/05 03:37:29;;;;;;;40.28;13.48;;;;;;;-0.08;100.00;95396.88;5020709;28;20471;-71
2022/12/05 03:40:11;;;;;;;45.40;14.05;;;;;;;-0.07;100.00;95393.28;5023727;28;20038;-71
2022/12/05 03:42:42;;;;;;;47.53;13.45;;;;;;;-0.09;100.00;95405.63;5030053;28;20041;-71
2022/12/05 03:45:11;;;;;;;41.60;13.25;;;;;;;-0.09;100.00;95405.63;5029869;28;20041;-71
2022/12/05 03:47:55;;;;;;;49.30;15.10;;;;;;;-0.07;100.00;95415.75;5023914;28;20478;-71
2022/12/05 03:50:24;;;;;;;;;;;;;;;-0.04;100.00;95408.41;5023064;28;20091;-71
2022/12/05 03:53:04;;;;;;;45.00;12.93;;;;;;;-0.03;100.00;95409.19;5019507;28;19935;-71
2022/12/05 03:55:34;;;;;;;44.40;12.70;;;;;;;-0.04;100.00;95407.63;5016788;28;20072;-71
2022/12/05 03:58:05;;;;;;;48.60;14.48;;;;;;;-0.01;100.00;95413.16;5016998;28;20500;-71
2022/12/05 04:00:37;;;;;;;51.50;14.85;;;;;;;0.05;100.00;95403.00;5019026;28;20099;-70
2022/12/05 04:03:12;;;;;;;42.17;12.80;;;;;;;0.10;100.00;95398.81;5025700;28;20046;-71
2022/12/05 04:05:49;;;;;;;53.00;15.52;;;;;;;0.03;100.00;95407.56;5019793;28;20038;-70
2022/12/05 04:08:21;;;;;;;54.17;16.65;;;;;;;0.03;100.00;95403.22;5029369;28;20034;-70
2022/12/05 04:10:50;;;;;;;50.85;13.38;;;;;;;0.06;100.00;95413.16;5028401;28;20046;-71
2022/12/05 04:13:21;;;;;;;45.45;14.70;;;;;;;0.10;100.00;95419.50;5023740;28;20404;-71
2022/12/05 04:18:43;;;;;;;44.75;14.27;;;;;;;0.13;100.00;95424.28;5016595;28;20037;-71
2022/12/05 04:26:44;;;;;;;45.88;13.63;;;;;;;0.23;100.00;95428.19;5025472;28;20052;-71
2022/12/05 04:29:28;;;;;;;41.00;13.02;;;;;;;0.24;100.00;95434.97;5019042;28;20072;-70
2022/12/05 04:31:59;;;;;;;35.53;12.48;;;;;;;0.23;100.00;95444.53;5025371;28;20045;-71
2022/12/05 04:34:28;;;;;;;36.03;12.80;;;;;;;0.30;100.00;95434.13;5022802;28;20042;-70
2022/12/05 04:37:05;;;;;;;39.70;11.90;;;;;;;0.26;100.00;95436.34;5022511;28;20104;-70
2022/12/05 04:39:49;;;;;;;37.63;13.43;;;;;;;0.30;100.00;95439.31;5021850;28;20049;-71
2022/12/05 04:42:20;;;;;;;45.25;13.95;;;;;;;0.32;100.00;95437.34;5026215;28;20041;-71
2022/12/05 04:45:07;;;;;;;38.92;13.10;;;;;;;0.33;100.00;95425.97;5015040;28;20069;-71
2022/12/05 04:47:44;;;;;;;41.13;12.02;;;;;;;0.30;100.00;95424.59;5023406;28;20499;-71
2022/12/05 04:50:12;;;;;;;36.00;12.35;;;;;;;0.35;100.00;95421.38;5025107;28;20037;-71
2022/12/05 04:52:39;;;;;;;43.10;13.18;;;;;;;0.38;100.00;95415.78;5025408;28;20042;-71
2022/12/05 04:55:10;;;;;;;41.58;12.80;;;;;;;0.35;100.00;95411.03;5010081;28;20503;-71
2022/12/05 04:57:44;;;;;;;38.53;11.57;;;;;;;0.35;100.00;95411.03;5021881;28;20064;-71
2022/12/05 05:00:10;;;;;;;36.60;12.50;;;;;;;0.43;100.00;95413.38;5029126;28;20057;-71
2022/12/05 05:02:47;;;;;;;36.97;12.75;;;;;;;0.39;100.00;95404.44;5028784;28;20301;-71
2022/12/05 05:05:15;;;;;;;37.25;11.93;;;;;;;0.39;100.00;95412.22;5021904;28;20045;-71
2022/12/05 05:07:46;;;;;;;39.78;11.90;;;;;;;0.39;100.00;95412.22;5025261;28;20095;-71
2022/12/05 05:10:15;;;;;;;40.97;12.60;;;;;;;0.43;100.00;95408.22;5022976;28;20045;-71
2022/12/05 05:12:41;;;;;;;44.47;13.68;;;;;;;0.39;100.00;95411.41;5021543;28;20045;-71
2022/12/05 05:15:07;;;;;;;41.33;12.05;;;;;;;0.41;100.00;95415.38;5028541;28;20239;-70
2022/12/05 05:17:32;;;;;;;44.83;13.10;;;;;;;0.42;100.00;95421.38;5015276;28;20041;-70
2022/12/05 05:20:22;;;;;;;35.13;13.20;;;;;;;0.48;100.00;95433.47;5027743;28;20057;-71
2022/12/05 05:22:47;;;;;;;39.95;12.93;;;;;;;0.40;100.00;95434.47;5024980;28;20054;-71
2022/12/05 05:25:12;;;;;;;39.63;13.00;;;;;;;0.37;100.00;95442.66;5020070;28;20042;-71
2022/12/05 05:27:38;;;;;;;48.05;14.35;;;;;;;0.39;100.00;95438.09;5019371;28;20050;-71
2022/12/05 05:30:04;;;;;;;39.15;12.75;;;;;;;0.43;100.00;95441.06;5027105;28;20512;-70
2022/12/05 05:32:31;;;;;;;47.75;13.55;;;;;;;0.49;100.00;95438.44;5026275;28;20045;-70
2022/12/05 05:34:57;;;;;;;38.72;12.38;;;;;;;0.52;100.00;95438.03;5027389;28;20045;-70
2022/12/05 05:37:22;;;;;;;38.95;12.07;;;;;;;0.49;100.00;95443.63;5027282;28;20129;-71
2022/12/05 05:39:48;;;;;;;42.35;13.73;;;;;;;0.61;100.00;95440.38;5020466;28;20040;-70
2022/12/05 05:42:13;;;;;;;46.60;16.70;;;;;;;0.49;100.00;95438.44;5026714;28;20037;-71
2022/12/05 05:44:39;;;;;;;46.65;14.18;;;;;;;0.42;100.00;95445.44;5023199;28;20045;-71
2022/12/05 05:47:05;;;;;;;47.17;16.70;;;;;;;0.39;100.00;95442.47;5017984;28;20092;-71
2022/12/05 05:49:30;;;;;;;44.50;12.57;;;;;;;0.38;100.00;95436.50;5025526;28;20511;-71
2022/12/05 05:51:56;;;;;;;38.97;12.77;;;;;;;0.43;100.00;95439.28;5023550;28;20044;-71
2022/12/05 05:54:21;;;;;;;46.17;14.40;;;;;;;0.36;100.00;95438.50;5021484;28;20045;-71
2022/12/05 05:56:47;;;;;;;44.30;14.57;;;;;;;0.36;100.00;95438.50;5014667;28;20038;-71
2022/12/05 05:59:13;;;;;;;41.65;13.05;;;;;;;0.40;100.00;95439.66;5026719;28;20057;-71
2022/12/05 06:01:38;;;;;;;45.42;13.57;;;;;;;0.39;100.00;95458.81;5015848;28;20048;-71
2022/12/05 06:04:04;;;;;;;42.05;14.80;;;;;;;0.44;100.00;95461.56;5016018;28;20045;-71
2022/12/05 06:06:29;;;;;;;57.55;14.95;;;;;;;0.34;100.00;95461.22;5026942;28;20053;-70
2022/12/05 06:08:55;;;;;;;48.83;14.70;;;;;;;0.37;100.00;95455.63;5030156;28;20445;-71
2022/12/05 06:11:23;;;;;;;45.88;14.57;;;;;;;0.40;100.00;95465.56;5023176;28;20038;-71
2022/12/05 06:13:49;;;;;;;47.75;14.02;;;;;;;0.40;100.00;95475.91;5025089;28;20045;-69
2022/12/05 06:16:16;;;;;;;47.22;13.40;;;;;;;0.41;100.00;95477.50;5030558;28;20517;-69
2022/12/05 06:18:42;;;;;;;51.58;14.60;;;;;;;0.40;100.00;95478.50;5014093;28;20059;-69
2022/12/05 06:21:09;;;;;;;50.58;14.57;;;;;;;0.39;100.00;95484.69;5026427;28;20045;-69
2022/12/05 06:23:36;;;;;;;54.60;15.07;;;;;;;0.36;100.00;95485.13;5029453;28;20041;-69
2022/12/05 06:26:03;;;;;;;57.17;14.32;;;;;;;0.41;100.00;95487.06;5024087;28;20038;-69
2022/12/05 06:28:29;;;;;;;49.42;16.02;;;;;;;0.43;100.00;95480.69;5029767;28;20136;-70
2022/12/05 06:30:55;;;;;;;55.13;15.52;;;;;;;0.51;100.00;95480.44;5031202;28;20029;-69
2022/12/05 06:33:21;;;;;;;40.70;13.90;;;;;;;0.63;100.00;95479.78;5022884;28;20049;-70
2022/12/05 06:35:47;;;;;;;43.10;14.90;;;;;;;0.49;100.00;95479.88;5029769;28;20483;-69
2022/12/05 06:38:12;;;;;;;43.33;14.15;;;;;;;0.48;100.00;95482.66;5026205;28;20430;-70
2022/12/05 06:40:43;;;;;;;43.55;13.30;;;;;;;0.51;100.00;95483.03;5021554;28;20050;-70
2022/12/05 06:43:09;;;;;;;38.83;12.38;;;;;;;0.51;100.00;95487.44;5031323;28;20045;-71
2022/12/05 06:45:38;;;;;;;41.30;13.77;;;;;;;0.49;100.00;95490.22;5022773;28;20053;-71
2022/12/05 06:48:04;;;;;;;40.80;12.80;;;;;;;0.45;100.00;95494.22;5021868;28;20045;-71
2022/12/05 06:50:30;;;;;;;44.72;13.65;;;;;;;0.56;100.00;95503.16;5030958;28;20050;-71
2022/12/05 06:52:55;;;;;;;45.20;13.63;;;;;;;0.51;100.00;95498.56;5028593;28;20045;-71
2022/12/05 06:55:21;;;;;;;46.60;14.73;;;;;;;0.51;100.00;95501.16;5023255;28;20042;-72
2022/12/05 06:57:46;;;;;;;42.28;14.02;;;;;;;0.50;100.00;95497.00;5030553;28;20042;-71
2022/12/05 07:03:14;;;;;;;43.90;14.70;;;;;;;0.54;100.00;95506.94;4969249;28;20051;-71
2022/12/05 07:05:39;;;;;;;45.15;13.45;;;;;;;0.55;100.00;95508.50;5009926;28;20057;-70
2022/12/05 07:08:05;;;;;;;43.35;12.27;;;;;;;0.58;100.00;95502.94;5031054;28;20053;-70
2022/12/05 07:10:30;;;;;;;41.70;15.40;;;;;;;0.60;100.00;95516.47;5023686;28;20037;-70
2022/12/05 07:12:56;;;;;;;35.45;12.52;;;;;;;0.62;100.00;95514.50;5023182;28;20060;-70
2022/12/05 07:15:22;;;;;;;42.47;12.82;;;;;;;0.64;100.00;95512.47;5028744;28;20041;-70
2022/12/05 07:17:47;;;;;;;36.88;12.93;;;;;;;0.63;100.00;95510.88;5026580;28;20731;-71
2022/12/05 07:20:16;;;;;;;40.80;12.38;;;;;;;0.67;100.00;95514.66;5022601;28;20042;-70
2022/12/05 07:22:43;;;;;;;36.35;11.57;;;;;;;0.68;100.00;95518.84;5025693;28;20096;-70
2022/12/05 07:25:09;;;;;;;38.13;13.18;;;;;;;0.69;100.00;95515.25;5029421;28;20053;-70
2022/12/05 07:27:34;;;;;;;37.63;13.95;;;;;;;0.66;100.00;95520.81;5025485;28;20049;-70
2022/12/05 07:30:00;;;;;;;39.60;13.07;;;;;;;0.72;100.00;95520.00;5025953;28;20046;-70
2022/12/05 07:32:25;;;;;;;37.13;13.02;;;;;;;0.76;100.00;95523.78;5027373;28;20048;-69
2022/12/05 07:34:51;;;;;;;36.90;12.10;;;;;;;0.79;100.00;95525.97;5031213;28;20572;-71
2022/12/05 07:37:17;;;;;;;37.03;12.63;;;;;;;0.77;100.00;95527.94;5026002;28;20042;-71
2022/12/05 07:39:43;;;;;;;41.90;12.85;;;;;;;0.79;100.00;95536.31;5012916;28;20435;-73
2022/12/05 07:42:08;;;;;;;40.15;13.00;;;;;;;0.82;100.00;95541.09;5026553;28;20555;-69
2022/12/05 07:44:34;;;;;;;43.92;13.27;;;;;;;0.86;100.00;95550.03;5016899;28;20428;-69
2022/12/05 07:46:59;;;;;;;40.90;12.88;;;;;;;0.94;100.00;95558.56;5020423;28;20462;-71
2022/12/05 07:49:25;;;;;;;41.70;12.30;;;;;;;0.93;100.00;95567.34;5039939;28;20041;-69
2022/12/05 07:51:51;;;;;;;41.53;12.95;;;;;;;1.00;100.00;95568.09;5026294;28;20034;-69
2022/12/05 07:54:17;;;;;;;35.85;12.70;;;;;;;0.99;100.00;95561.31;5020920;28;20061;-69
2022/12/05 07:56:42;;;;;;;36.70;13.20;;;;;;;1.02;100.00;95555.72;5028173;28;20484;-68
2022/12/05 07:59:08;;;;;;;43.95;12.93;;;;;;;1.01;100.00;95559.34;5018023;28;20745;-70
2022/12/05 08:01:35;;;;;;;41.90;13.02;;;;;;;1.12;100.00;95560.47;5028807;28;20045;-68
2022/12/05 08:04:01;;;;;;;36.72;12.93;;;;;;;1.10;100.00;95552.88;5022718;28;20037;-69
2022/12/05 08:06:28;;;;;;;37.03;12.43;;;;;;;1.08;100.00;95554.09;5025555;28;20045;-68
2022/12/05 08:08:56;;;;;;;35.72;13.10;;;;;;;1.13;100.00;95556.88;5029579;28;20049;-68
2022/12/05 08:11:30;;;;;;;42.95;14.05;;;;;;;1.09;100.00;95566.84;5030706;28;20418;-70
2022/12/05 08:13:57;;;;;;;37.85;12.55;;;;;;;1.10;100.00;95568.44;5013809;28;20065;-69
2022/12/05 08:16:27;;;;;;;40.60;13.00;;;;;;;1.13;100.00;95557.66;5026587;28;20041;-69
2022/12/05 08:18:57;;;;;;;38.67;12.70;;;;;;;1.16;100.00;95572.78;5021605;28;20038;-70
2022/12/05 08:21:24;;;;;;;43.58;14.65;;;;;;;1.23;100.00;95571.97;5029574;28;20041;-71
2022/12/05 08:23:49;;;;;;;42.47;14.02;;;;;;;1.22;100.00;95573.75;5019755;28;20045;-71
2022/12/05 08:26:20;;;;;;;42.58;14.57;;;;;;;1.15;100.00;95581.59;5019088;28;20053;-70
2022/12/05 08:28:51;;;;;;;39.97;13.90;;;;;;;1.24;100.00;95581.34;5016768;28;20046;-71
2022/12/05 08:31:19;;;;;;;44.72;14.07;;;;;;;1.19;100.00;95590.53;5024472;28;20652;-70
2022/12/05 08:33:45;;;;;;;40.55;14.00;;;;;;;1.34;100.00;95590.25;5026738;28;20041;-71
2022/12/05 08:36:14;;;;;;;39.17;14.02;;;;;;;1.33;100.00;95587.88;5024895;28;20042;-71
2022/12/05 08:38:40;;;;;;;39.60;14.15;;;;;;;1.26;100.00;95592.28;5030043;28;20434;-75
2022/12/05 08:41:07;;;;;;;45.25;15.15;;;;;;;1.34;100.00;95594.66;5024166;28;20038;-70
2022/12/05 08:43:33;;;;;;;41.75;14.90;;;;;;;1.23;100.00;95592.72;5020216;28;20042;-70
2022/12/05 08:45:59;;;;;;;44.75;15.20;;;;;;;1.30;100.00;95596.06;5025814;28;20049;-70
2022/12/05 08:48:27;;;;;;;44.97;14.85;;;;;;;1.35;100.00;95601.41;5024856;28;20064;-71
2022/12/05 08:50:53;;;;;;;38.92;13.52;;;;;;;1.29;100.00;95603.03;5025223;28;20103;-69
2022/12/05 08:53:19;;;;;;;38.15;13.48;;;;;;;1.32;100.00;95607.00;5023597;28;20045;-70
2022/12/05 08:55:44;;;;;;;40.33;14.48;;;;;;;1.31;100.00;95605.44;5024689;28;20034;-69
2022/12/05 08:58:12;;;;;;;41.03;14.85;;;;;;;1.30;100.00;95603.84;5018784;28;20030;-69
2022/12/05 09:00:38;;;;;;;43.88;15.93;;;;;;;1.31;100.00;95605.44;5028205;28;20403;-69
2022/12/05 09:03:05;;;;;;;36.22;13.80;;;;;;;1.29;100.00;95604.84;5029568;28;20507;-69
2022/12/05 09:05:30;;;;;;;40.42;14.48;;;;;;;1.29;100.00;95604.84;5019281;28;20042;-69
2022/12/05 09:07:58;;;;;;;36.22;14.15;;;;;;;1.33;100.00;95608.59;5021151;28;20116;-69
2022/12/05 09:10:23;;;;;;;39.90;14.38;;;;;;;1.34;100.00;95612.81;5022842;28;20046;-70
2022/12/05 09:12:50;;;;;;;41.65;14.75;;;;;;;1.38;100.00;95613.97;5023895;28;20111;-69
2022/12/05 09:15:16;;;;;;;40.95;14.38;;;;;;;1.38;100.00;95616.56;5017085;28;20066;-70
2022/12/05 09:17:42;;;;;;;40.22;13.80;;;;;;;1.39;100.00;95612.94;5022142;28;20053;-70
2022/12/05 09:20:08;;;;;;;46.22;14.88;;;;;;;1.43;100.00;95603.75;5024650;28;20045;-69
2022/12/05 09:22:34;;;;;;;48.47;15.10;;;;;;;1.48;100.00;95616.91;5026784;28;20503;-69
2022/12/05 09:24:59;;;;;;;39.67;15.20;;;;;;;1.45;100.00;95616.50;5025875;28;20068;-69
2022/12/05 09:27:27;;;;;;;41.35;15.57;;;;;;;1.45;100.00;95617.31;5020777;28;20099;-69
2022/12/05 09:29:53;;;;;;;43.45;18.05;;;;;;;1.46;100.00;95624.06;5012496;28;20041;-69
2022/12/05 09:32:18;;;;;;;41.00;15.63;;;;;;;1.50;100.00;95614.88;5026231;28;20038;-69
2022/12/05 09:34:44;;;;;;;37.95;14.65;;;;;;;1.50;100.00;95614.88;5026554;28;20046;-69
2022/12/05 09:37:10;;;;;;;34.17;14.15;;;;;;;1.58;100.00;95626.00;5013476;28;20046;-69
2022/12/05 09:39:35;;;;;;;37.33;13.15;;;;;;;1.65;100.00;95632.75;5017916;28;20044;-69
2022/12/05 09:42:41;;;;;;;38.50;13.95;;;;;;;1.59;100.00;95635.41;5027620;28;20075;-69
2022/12/05 09:45:24;;;;;;;;;;;;;;;1.64;100.00;95640.72;5005701;28;20060;-69
2022/12/05 09:47:58;;;;;;;40.05;13.57;;;;;;;1.58;100.00;95636.38;5021823;28;20561;-68
2022/12/05 09:50:27;;;;;;;34.17;13.23;;;;;;;1.49;100.00;95639.22;5025566;28;20046;-70
2022/12/05 09:52:55;;;;;;;43.15;15.85;;;;;;;1.46;100.00;95639.63;5026196;28;20045;-69
2022/12/05 09:55:21;;;;;;;40.15;14.20;;;;;;;1.51;100.00;95639.81;5023315;28;20104;-70
2022/12/05 09:57:52;;;;;;;45.95;17.88;;;;;;;1.53;100.00;95640.41;5026211;28;20033;-69
2022/12/05 10:00:18;;;;;;;44.70;15.40;;;;;;;1.49;100.00;95633.25;5031830;28;20042;-70
2022/12/05 10:03:08;;;;;;;45.53;14.90;;;;;;;1.52;100.00;95633.66;5029754;28;20482;-70
2022/12/05 10:06:10;;;;;;;37.25;13.63;;;;;;;1.53;100.00;95640.41;5024002;28;20117;-70
2022/12/05 10:08:52;;;;;;;37.58;13.95;;;;;;;1.55;100.00;95640.19;5025612;28;20482;-70
2022/12/05 10:11:26;;;;;;;37.65;13.50;;;;;;;1.67;100.00;95640.34;5031996;28;20411;-70
2022/12/05 10:14:07;;;;;;;39.63;13.90;;;;;;;1.70;100.00;95634.72;5024940;28;20045;-71
2022/12/05 10:16:55;;;;;;;46.15;15.93;;;;;;;1.73;100.00;95634.31;5029806;28;20045;-71
2022/12/05 10:19:27;;;;;;;35.58;13.60;;;;;;;1.80;100.00;95635.06;5026798;28;20038;-70
2022/12/05 10:22:18;;;;;;;40.42;13.27;;;;;;;1.84;100.00;95625.84;5026615;28;20034;-71
2022/12/05 10:24:49;;;;;;;39.28;14.40;;;;;;;1.78;100.00;95631.88;5033154;28;20092;-70
2022/12/05 10:27:30;;;;;;;38.70;14.10;;;;;;;1.80;100.00;95624.66;5025134;28;20045;-70
2022/12/05 10:30:13;;;;;;;34.70;13.15;;;;;;;1.79;100.00;95625.66;5024165;28;20116;-71
2022/12/05 10:32:58;;;;;;;45.53;14.88;;;;;;;1.86;100.00;95636.78;5031537;28;20056;-71
2022/12/05 10:35:27;;;;;;;37.60;13.68;;;;;;;1.85;100.00;95637.00;5026706;28;20068;-70
2022/12/05 10:37:56;;;;;;;33.35;13.50;;;;;;;1.93;100.00;95623.00;5027929;28;20495;-70
2022/12/05 10:40:24;;;;;;;38.03;13.88;;;;;;;1.88;100.00;95624.41;5030840;28;20052;-70
2022/12/05 10:42:49;;;;;;;36.78;13.82;;;;;;;2.01;100.00;95625.31;5019834;28;20045;-69
2022/12/05 10:45:22;;;;;;;46.95;14.63;;;;;;;1.95;100.00;95631.34;5025672;28;20080;-69
2022/12/05 10:47:52;;;;;;;38.05;13.52;;;;;;;2.03;100.00;95633.69;5029671;28;20746;-69
2022/12/05 10:50:26;;;;;;;39.45;14.85;;;;;;;2.07;100.00;95635.66;5017690;28;20491;-71
2022/12/05 10:52:54;;;;;;;40.33;13.80;;;;;;;2.05;100.00;95622.09;5029124;28;20059;-70
2022/12/05 10:55:20;;;;;;;42.55;14.68;;;;;;;2.18;100.00;95631.53;5025022;28;20045;-70
2022/12/05 10:58:06;;;;;;;33.55;12.82;;;;;;;2.37;100.00;95616.81;5031064;28;20554;-70
2022/12/05 11:00:32;;;;;;;35.92;13.07;;;;;;;2.29;100.00;95611.09;5026501;28;20034;-69
2022/12/05 11:03:02;;;;;;;44.92;15.38;;;;;;;2.12;100.00;95611.63;5025286;28;20037;-69
2022/12/05 11:05:30;;;;;;;37.83;13.95;;;;;;;2.16;100.00;95612.81;5020354;28;20042;-71
2022/12/05 11:07:57;;;;;;;37.00;13.30;;;;;;;2.34;100.00;95608.66;5024617;28;20048;-69
2022/12/05 11:10:33;;;;;;;36.05;13.07;;;;;;;2.34;100.00;95609.47;5030290;28;20103;-70
2022/12/05 11:13:00;;;;;;;37.33;14.32;;;;;;;2.41;100.00;95609.38;5025380;28;20125;-69
2022/12/05 11:15:30;;;;;;;36.38;13.27;;;;;;;2.36;100.00;95611.84;5025790;28;20054;-72
2022/12/05 11:18:15;;;;;;;43.60;13.88;;;;;;;2.42;100.00;95609.16;5021147;28;20037;-71
2022/12/05 11:20:41;;;;;;;31.10;12.73;;;;;;;2.44;100.00;95619.31;5023141;28;20049;-71
2022/12/05 11:23:22;;;;;;;40.33;14.32;;;;;;;2.50;100.00;95608.09;5026132;28;20038;-69
2022/12/05 11:25:47;;;;;;;43.15;14.48;;;;;;;2.51;100.00;95612.25;5021397;28;20069;-71
2022/12/05 11:28:16;;;;;;;32.17;13.27;;;;;;;2.64;100.00;95610.56;5029606;28;20046;-69
2022/12/05 11:31:03;;;;;;;40.45;13.90;;;;;;;2.58;100.00;95620.00;5024464;28;20034;-69
2022/12/05 11:33:32;;;;;;;37.78;13.07;;;;;;;2.69;100.00;95605.50;5022980;28;20041;-70
2022/12/05 11:36:13;;;;;;;35.80;13.40;;;;;;;2.83;100.00;95606.13;5027144;28;20037;-69
2022/12/05 11:38:40;;;;;;;35.03;13.48;;;;;;;3.00;100.00;95593.34;5032202;28;20042;-70
2022/12/05 11:41:21;;;;;;;36.95;13.30;;;;;;;3.23;100.00;95596.06;5023434;28;20048;-71